sensor_id;sensor_type;location;lat;lon;timestamp;P1;durP1;ratioP1;P2;durP2;ratioP2
8488;SDS011;4281;45.772;12.852;2022-12-18T00:01:13;3.47;;;3.17;;
8488;SDS011;4281;45.772;12.852;2022-12-18T00:03:42;3.70;;;3.40;;
8488;SDS011;4281;45.772;12.852;2022-12-18T00:06:12;4.27;;;3.13;;
8488;SDS011;4281;45.772;12.852;2022-12-18T00:08:40;4.20;;;3.70;;
8488;SDS011;4281;45.772;12.852;2022-12-18T00:11:10;3.90;;;3.60;;
8488;SDS011;4281;45.772;12.852;2022-12-18T00:13:40;3.50;;;3.20;;
8488;SDS011;4281;45.772;12.852;2022-12-18T00:16:08;3.40;;;3.10;;
8488;SDS011;4281;45.772;12.852;2022-12-18T00:18:40;3.20;;;2.90;;
8488;SDS011;4281;45.772;12.852;2022-12-18T00:21:09;3.67;;;3.27;;
8488;SDS011;4281;45.772;12.852;2022-12-18T00:23:38;3.53;;;3.23;;
8488;SDS011;4281;45.772;12.852;2022-12-18T00:26:09;4.10;;;3.70;;
8488;SDS011;4281;45.772;12.852;2022-12-18T00:28:43;3.87;;;3.33;;
8488;SDS011;4281;45.772;12.852;2022-12-18T00:31:12;3.37;;;3.07;;
8488;SDS011;4281;45.772;12.852;2022-12-18T00:33:41;3.47;;;3.17;;
8488;SDS011;4281;45.772;12.852;2022-12-18T00:36:09;3.40;;;3.10;;
8488;SDS011;4281;45.772;12.852;2022-12-18T00:38:38;3.40;;;3.10;;
8488;SDS011;4281;45.772;12.852;2022-12-18T00:41:07;3.37;;;3.07;;
8488;SDS011;4281;45.772;12.852;2022-12-18T00:43:36;3.33;;;3.03;;
8488;SDS011;4281;45.772;12.852;2022-12-18T00:46:05;3.33;;;3.03;;
8488;SDS011;4281;45.772;12.852;2022-12-18T00:48:33;3.73;;;3.33;;
8488;SDS011;4281;45.772;12.852;2022-12-18T00:51:00;3.50;;;3.20;;
8488;SDS011;4281;45.772;12.852;2022-12-18T00:53:28;3.57;;;3.27;;
8488;SDS011;4281;45.772;12.852;2022-12-18T00:55:56;3.50;;;3.20;;
8488;SDS011;4281;45.772;12.852;2022-12-18T00:58:23;3.40;;;3.10;;
8488;SDS011;4281;45.772;12.852;2022-12-18T01:03:33;3.60;;;3.30;;
8488;SDS011;4281;45.772;12.852;2022-12-18T01:06:04;3.10;;;2.80;;
8488;SDS011;4281;45.772;12.852;2022-12-18T01:08:33;3.93;;;3.17;;
8488;SDS011;4281;45.772;12.852;2022-12-18T01:11:01;3.20;;;2.90;;
8488;SDS011;4281;45.772;12.852;2022-12-18T01:13:33;3.40;;;3.10;;
8488;SDS011;4281;45.772;12.852;2022-12-18T01:16:02;3.20;;;2.90;;
8488;SDS011;4281;45.772;12.852;2022-12-18T01:18:29;3.73;;;3.43;;
8488;SDS011;4281;45.772;12.852;2022-12-18T01:20:58;2.83;;;2.63;;
8488;SDS011;4281;45.772;12.852;2022-12-18T01:23:26;2.70;;;2.50;;
8488;SDS011;4281;45.772;12.852;2022-12-18T01:25:54;3.20;;;2.90;;
8488;SDS011;4281;45.772;12.852;2022-12-18T01:28:21;2.93;;;2.73;;
8488;SDS011;4281;45.772;12.852;2022-12-18T01:30:49;3.80;;;3.20;;
8488;SDS011;4281;45.772;12.852;2022-12-18T01:33:17;3.33;;;3.03;;
8488;SDS011;4281;45.772;12.852;2022-12-18T01:35:45;3.00;;;2.80;;
8488;SDS011;4281;45.772;12.852;2022-12-18T01:38:15;3.67;;;3.37;;
8488;SDS011;4281;45.772;12.852;2022-12-18T01:40:42;3.50;;;3.20;;
8488;SDS011;4281;45.772;12.852;2022-12-18T01:43:10;3.13;;;2.83;;
8488;SDS011;4281;45.772;12.852;2022-12-18T01:45:38;3.30;;;3.00;;
8488;SDS011;4281;45.772;12.852;2022-12-18T01:48:06;3.10;;;2.80;;
8488;SDS011;4281;45.772;12.852;2022-12-18T01:50:35;3.50;;;3.20;;
8488;SDS011;4281;45.772;12.852;2022-12-18T01:53:05;3.27;;;2.97;;
8488;SDS011;4281;45.772;12.852;2022-12-18T01:55:36;3.80;;;3.30;;
8488;SDS011;4281;45.772;12.852;2022-12-18T01:58:06;3.60;;;3.30;;
8488;SDS011;4281;45.772;12.852;2022-12-18T02:00:34;3.43;;;3.13;;
8488;SDS011;4281;45.772;12.852;2022-12-18T02:03:02;3.80;;;3.50;;
8488;SDS011;4281;45.772;12.852;2022-12-18T02:05:34;4.03;;;3.63;;
8488;SDS011;4281;45.772;12.852;2022-12-18T02:08:08;3.93;;;3.63;;
8488;SDS011;4281;45.772;12.852;2022-12-18T02:10:41;4.10;;;3.70;;
8488;SDS011;4281;45.772;12.852;2022-12-18T02:13:14;4.20;;;3.80;;
8488;SDS011;4281;45.772;12.852;2022-12-18T02:15:49;4.33;;;3.93;;
8488;SDS011;4281;45.772;12.852;2022-12-18T02:18:19;4.10;;;3.70;;
8488;SDS011;4281;45.772;12.852;2022-12-18T02:20:51;4.60;;;4.20;;
8488;SDS011;4281;45.772;12.852;2022-12-18T02:23:24;4.90;;;4.37;;
8488;SDS011;4281;45.772;12.852;2022-12-18T02:26:06;4.90;;;4.30;;
8488;SDS011;4281;45.772;12.852;2022-12-18T02:28:36;4.73;;;4.23;;
8488;SDS011;4281;45.772;12.852;2022-12-18T02:31:07;4.70;;;4.30;;
8488;SDS011;4281;45.772;12.852;2022-12-18T02:33:39;5.00;;;4.50;;
8488;SDS011;4281;45.772;12.852;2022-12-18T02:36:07;5.13;;;4.60;;
8488;SDS011;4281;45.772;12.852;2022-12-18T02:38:36;4.70;;;4.30;;
8488;SDS011;4281;45.772;12.852;2022-12-18T02:41:05;5.30;;;4.90;;
8488;SDS011;4281;45.772;12.852;2022-12-18T02:43:33;5.43;;;4.80;;
8488;SDS011;4281;45.772;12.852;2022-12-18T02:48:55;5.70;;;5.10;;
8488;SDS011;4281;45.772;12.852;2022-12-18T02:51:44;5.00;;;4.50;;
8488;SDS011;4281;45.772;12.852;2022-12-18T02:54:17;4.87;;;4.47;;
8488;SDS011;4281;45.772;12.852;2022-12-18T02:56:53;4.30;;;3.90;;
8488;SDS011;4281;45.772;12.852;2022-12-18T02:59:24;4.43;;;4.03;;
8488;SDS011;4281;45.772;12.852;2022-12-18T03:01:57;4.40;;;4.00;;
8488;SDS011;4281;45.772;12.852;2022-12-18T03:04:28;4.43;;;4.03;;
8488;SDS011;4281;45.772;12.852;2022-12-18T03:06:58;4.47;;;4.07;;
8488;SDS011;4281;45.772;12.852;2022-12-18T03:09:29;5.13;;;4.63;;
8488;SDS011;4281;45.772;12.852;2022-12-18T03:12:02;5.07;;;4.57;;
8488;SDS011;4281;45.772;12.852;2022-12-18T03:14:50;4.40;;;4.00;;
8488;SDS011;4281;45.772;12.852;2022-12-18T03:17:22;4.63;;;4.23;;
8488;SDS011;4281;45.772;12.852;2022-12-18T03:19:51;4.90;;;4.47;;
8488;SDS011;4281;45.772;12.852;2022-12-18T03:22:20;5.27;;;4.60;;
8488;SDS011;4281;45.772;12.852;2022-12-18T03:24:50;5.60;;;5.10;;
8488;SDS011;4281;45.772;12.852;2022-12-18T03:27:20;5.03;;;4.40;;
8488;SDS011;4281;45.772;12.852;2022-12-18T03:29:51;5.23;;;4.73;;
8488;SDS011;4281;45.772;12.852;2022-12-18T03:32:23;5.30;;;4.60;;
8488;SDS011;4281;45.772;12.852;2022-12-18T03:34:53;4.83;;;4.40;;
8488;SDS011;4281;45.772;12.852;2022-12-18T03:37:24;5.13;;;4.63;;
8488;SDS011;4281;45.772;12.852;2022-12-18T03:39:52;4.93;;;4.43;;
8488;SDS011;4281;45.772;12.852;2022-12-18T03:42:23;5.57;;;5.07;;
8488;SDS011;4281;45.772;12.852;2022-12-18T03:44:54;5.33;;;4.83;;
8488;SDS011;4281;45.772;12.852;2022-12-18T03:47:26;5.33;;;4.83;;
8488;SDS011;4281;45.772;12.852;2022-12-18T03:49:56;5.70;;;5.20;;
8488;SDS011;4281;45.772;12.852;2022-12-18T03:52:25;5.27;;;4.77;;
8488;SDS011;4281;45.772;12.852;2022-12-18T03:54:55;5.50;;;5.00;;
8488;SDS011;4281;45.772;12.852;2022-12-18T03:57:26;6.57;;;5.10;;
8488;SDS011;4281;45.772;12.852;2022-12-18T03:59:56;5.40;;;4.90;;
8488;SDS011;4281;45.772;12.852;2022-12-18T04:02:26;5.60;;;5.00;;
8488;SDS011;4281;45.772;12.852;2022-12-18T04:04:56;5.80;;;5.20;;
8488;SDS011;4281;45.772;12.852;2022-12-18T04:07:25;6.27;;;4.97;;
8488;SDS011;4281;45.772;12.852;2022-12-18T04:09:54;5.60;;;5.00;;
8488;SDS011;4281;45.772;12.852;2022-12-18T04:12:23;5.60;;;5.10;;
8488;SDS011;4281;45.772;12.852;2022-12-18T04:14:53;5.70;;;5.10;;
8488;SDS011;4281;45.772;12.852;2022-12-18T04:17:21;6.33;;;5.07;;
8488;SDS011;4281;45.772;12.852;2022-12-18T04:19:50;5.30;;;4.80;;
8488;SDS011;4281;45.772;12.852;2022-12-18T04:22:17;5.50;;;4.97;;
8488;SDS011;4281;45.772;12.852;2022-12-18T04:24:45;5.80;;;5.20;;
8488;SDS011;4281;45.772;12.852;2022-12-18T04:27:13;6.77;;;6.03;;
8488;SDS011;4281;45.772;12.852;2022-12-18T04:29:42;5.33;;;4.83;;
8488;SDS011;4281;45.772;12.852;2022-12-18T04:32:10;5.97;;;5.37;;
8488;SDS011;4281;45.772;12.852;2022-12-18T04:34:38;5.67;;;5.07;;
8488;SDS011;4281;45.772;12.852;2022-12-18T04:37:05;5.97;;;5.17;;
8488;SDS011;4281;45.772;12.852;2022-12-18T04:39:33;5.80;;;5.20;;
8488;SDS011;4281;45.772;12.852;2022-12-18T04:42:02;5.97;;;5.37;;
8488;SDS011;4281;45.772;12.852;2022-12-18T04:44:29;6.13;;;5.53;;
8488;SDS011;4281;45.772;12.852;2022-12-18T04:46:58;6.10;;;5.43;;
8488;SDS011;4281;45.772;12.852;2022-12-18T04:49:26;5.83;;;5.23;;
8488;SDS011;4281;45.772;12.852;2022-12-18T04:51:54;5.30;;;4.53;;
8488;SDS011;4281;45.772;12.852;2022-12-18T04:54:21;5.53;;;5.03;;
8488;SDS011;4281;45.772;12.852;2022-12-18T04:56:49;5.57;;;4.97;;
8488;SDS011;4281;45.772;12.852;2022-12-18T04:59:17;6.23;;;5.53;;
8488;SDS011;4281;45.772;12.852;2022-12-18T05:01:45;6.00;;;5.40;;
8488;SDS011;4281;45.772;12.852;2022-12-18T05:04:14;6.03;;;5.43;;
8488;SDS011;4281;45.772;12.852;2022-12-18T05:06:43;6.80;;;5.73;;
8488;SDS011;4281;45.772;12.852;2022-12-18T05:09:10;6.60;;;5.63;;
8488;SDS011;4281;45.772;12.852;2022-12-18T05:11:38;5.97;;;5.37;;
8488;SDS011;4281;45.772;12.852;2022-12-18T05:14:08;5.70;;;5.10;;
8488;SDS011;4281;45.772;12.852;2022-12-18T05:16:36;5.17;;;4.50;;
8488;SDS011;4281;45.772;12.852;2022-12-18T05:19:04;6.07;;;5.43;;
8488;SDS011;4281;45.772;12.852;2022-12-18T05:21:33;6.07;;;5.47;;
8488;SDS011;4281;45.772;12.852;2022-12-18T05:24:01;5.97;;;5.37;;
8488;SDS011;4281;45.772;12.852;2022-12-18T05:26:29;5.90;;;5.30;;
8488;SDS011;4281;45.772;12.852;2022-12-18T05:28:56;6.37;;;5.50;;
8488;SDS011;4281;45.772;12.852;2022-12-18T05:31:24;5.80;;;5.20;;
8488;SDS011;4281;45.772;12.852;2022-12-18T05:33:52;6.00;;;5.40;;
8488;SDS011;4281;45.772;12.852;2022-12-18T05:36:20;7.13;;;5.87;;
8488;SDS011;4281;45.772;12.852;2022-12-18T05:38:49;6.83;;;6.07;;
8488;SDS011;4281;45.772;12.852;2022-12-18T05:41:17;6.33;;;5.70;;
8488;SDS011;4281;45.772;12.852;2022-12-18T05:43:44;6.57;;;5.93;;
8488;SDS011;4281;45.772;12.852;2022-12-18T05:46:12;5.80;;;5.20;;
8488;SDS011;4281;45.772;12.852;2022-12-18T05:48:41;6.33;;;5.47;;
8488;SDS011;4281;45.772;12.852;2022-12-18T05:51:09;6.00;;;5.40;;
8488;SDS011;4281;45.772;12.852;2022-12-18T05:53:38;6.30;;;5.67;;
8488;SDS011;4281;45.772;12.852;2022-12-18T05:56:08;6.63;;;5.43;;
8488;SDS011;4281;45.772;12.852;2022-12-18T05:58:40;6.27;;;5.67;;
8488;SDS011;4281;45.772;12.852;2022-12-18T06:01:09;5.80;;;5.20;;
8488;SDS011;4281;45.772;12.852;2022-12-18T06:03:38;6.70;;;5.73;;
8488;SDS011;4281;45.772;12.852;2022-12-18T06:06:13;5.97;;;5.37;;
8488;SDS011;4281;45.772;12.852;2022-12-18T06:08:41;7.00;;;5.90;;
8488;SDS011;4281;45.772;12.852;2022-12-18T06:11:15;7.17;;;6.10;;
8488;SDS011;4281;45.772;12.852;2022-12-18T06:13:44;5.97;;;5.33;;
8488;SDS011;4281;45.772;12.852;2022-12-18T06:16:12;6.73;;;6.00;;
8488;SDS011;4281;45.772;12.852;2022-12-18T06:18:40;7.00;;;6.10;;
8488;SDS011;4281;45.772;12.852;2022-12-18T06:21:08;6.77;;;5.83;;
8488;SDS011;4281;45.772;12.852;2022-12-18T06:23:36;6.67;;;5.97;;
8488;SDS011;4281;45.772;12.852;2022-12-18T06:26:05;5.93;;;5.33;;
8488;SDS011;4281;45.772;12.852;2022-12-18T06:28:34;5.70;;;5.10;;
8488;SDS011;4281;45.772;12.852;2022-12-18T06:31:02;5.73;;;5.13;;
8488;SDS011;4281;45.772;12.852;2022-12-18T06:33:30;5.37;;;4.87;;
8488;SDS011;4281;45.772;12.852;2022-12-18T06:35:59;6.00;;;5.17;;
8488;SDS011;4281;45.772;12.852;2022-12-18T06:38:28;5.30;;;4.63;;
8488;SDS011;4281;45.772;12.852;2022-12-18T06:40:55;5.70;;;5.00;;
8488;SDS011;4281;45.772;12.852;2022-12-18T06:43:23;5.83;;;5.10;;
8488;SDS011;4281;45.772;12.852;2022-12-18T06:45:57;6.33;;;5.47;;
8488;SDS011;4281;45.772;12.852;2022-12-18T06:48:26;5.83;;;5.23;;
8488;SDS011;4281;45.772;12.852;2022-12-18T06:50:54;6.67;;;5.63;;
8488;SDS011;4281;45.772;12.852;2022-12-18T06:53:21;7.57;;;6.13;;
8488;SDS011;4281;45.772;12.852;2022-12-18T06:55:49;6.47;;;5.83;;
8488;SDS011;4281;45.772;12.852;2022-12-18T06:58:17;7.40;;;6.00;;
8488;SDS011;4281;45.772;12.852;2022-12-18T07:00:45;6.10;;;5.47;;
8488;SDS011;4281;45.772;12.852;2022-12-18T07:03:14;5.87;;;5.27;;
8488;SDS011;4281;45.772;12.852;2022-12-18T07:05:41;6.77;;;5.60;;
8488;SDS011;4281;45.772;12.852;2022-12-18T07:08:09;5.90;;;5.10;;
8488;SDS011;4281;45.772;12.852;2022-12-18T07:10:40;6.17;;;5.10;;
8488;SDS011;4281;45.772;12.852;2022-12-18T07:13:13;5.60;;;5.00;;
8488;SDS011;4281;45.772;12.852;2022-12-18T07:15:41;5.73;;;5.10;;
8488;SDS011;4281;45.772;12.852;2022-12-18T07:18:10;6.43;;;5.43;;
8488;SDS011;4281;45.772;12.852;2022-12-18T07:20:40;6.47;;;5.63;;
8488;SDS011;4281;45.772;12.852;2022-12-18T07:23:07;7.30;;;5.70;;
8488;SDS011;4281;45.772;12.852;2022-12-18T07:25:35;6.53;;;5.60;;
8488;SDS011;4281;45.772;12.852;2022-12-18T07:28:03;6.53;;;5.83;;
8488;SDS011;4281;45.772;12.852;2022-12-18T07:30:32;6.53;;;5.50;;
8488;SDS011;4281;45.772;12.852;2022-12-18T07:33:00;6.20;;;5.43;;
8488;SDS011;4281;45.772;12.852;2022-12-18T07:35:27;6.77;;;6.00;;
8488;SDS011;4281;45.772;12.852;2022-12-18T07:37:56;6.90;;;6.10;;
8488;SDS011;4281;45.772;12.852;2022-12-18T07:40:24;7.97;;;6.03;;
8488;SDS011;4281;45.772;12.852;2022-12-18T07:42:52;6.03;;;5.43;;
8488;SDS011;4281;45.772;12.852;2022-12-18T07:45:19;6.93;;;6.23;;
8488;SDS011;4281;45.772;12.852;2022-12-18T07:47:47;7.17;;;6.00;;
8488;SDS011;4281;45.772;12.852;2022-12-18T07:50:15;6.63;;;5.80;;
8488;SDS011;4281;45.772;12.852;2022-12-18T07:52:44;6.93;;;5.57;;
8488;SDS011;4281;45.772;12.852;2022-12-18T07:55:14;7.10;;;6.40;;
8488;SDS011;4281;45.772;12.852;2022-12-18T07:57:42;7.77;;;6.63;;
8488;SDS011;4281;45.772;12.852;2022-12-18T08:00:22;7.30;;;6.50;;
8488;SDS011;4281;45.772;12.852;2022-12-18T08:02:50;7.20;;;6.50;;
8488;SDS011;4281;45.772;12.852;2022-12-18T08:05:18;8.23;;;7.45;;
8488;SDS011;4281;45.772;12.852;2022-12-18T08:07:46;7.33;;;6.53;;
8488;SDS011;4281;45.772;12.852;2022-12-18T08:10:16;8.20;;;7.20;;
8488;SDS011;4281;45.772;12.852;2022-12-18T08:12:44;7.57;;;6.57;;
8488;SDS011;4281;45.772;12.852;2022-12-18T08:15:11;7.60;;;6.43;;
8488;SDS011;4281;45.772;12.852;2022-12-18T08:17:39;6.80;;;6.00;;
8488;SDS011;4281;45.772;12.852;2022-12-18T08:20:07;6.73;;;6.03;;
8488;SDS011;4281;45.772;12.852;2022-12-18T08:22:36;7.53;;;6.37;;
8488;SDS011;4281;45.772;12.852;2022-12-18T08:25:04;6.10;;;5.50;;
8488;SDS011;4281;45.772;12.852;2022-12-18T08:27:33;6.87;;;6.10;;
8488;SDS011;4281;45.772;12.852;2022-12-18T08:30:02;6.30;;;5.63;;
8488;SDS011;4281;45.772;12.852;2022-12-18T08:32:32;7.80;;;6.70;;
8488;SDS011;4281;45.772;12.852;2022-12-18T08:35:00;6.33;;;5.73;;
8488;SDS011;4281;45.772;12.852;2022-12-18T08:37:27;6.60;;;5.90;;
8488;SDS011;4281;45.772;12.852;2022-12-18T08:39:55;7.00;;;6.23;;
8488;SDS011;4281;45.772;12.852;2022-12-18T08:42:23;6.80;;;6.03;;
8488;SDS011;4281;45.772;12.852;2022-12-18T08:45:21;7.10;;;6.17;;
8488;SDS011;4281;45.772;12.852;2022-12-18T08:47:48;7.03;;;6.17;;
8488;SDS011;4281;45.772;12.852;2022-12-18T08:50:16;6.87;;;6.17;;
8488;SDS011;4281;45.772;12.852;2022-12-18T08:52:44;8.20;;;6.63;;
8488;SDS011;4281;45.772;12.852;2022-12-18T08:55:12;6.43;;;5.53;;
8488;SDS011;4281;45.772;12.852;2022-12-18T08:57:40;6.73;;;6.00;;
8488;SDS011;4281;45.772;12.852;2022-12-18T09:00:08;6.50;;;5.77;;
8488;SDS011;4281;45.772;12.852;2022-12-18T09:02:37;6.90;;;6.20;;
8488;SDS011;4281;45.772;12.852;2022-12-18T09:05:06;6.60;;;5.90;;
8488;SDS011;4281;45.772;12.852;2022-12-18T09:07:34;6.93;;;5.77;;
8488;SDS011;4281;45.772;12.852;2022-12-18T09:10:01;6.13;;;5.53;;
8488;SDS011;4281;45.772;12.852;2022-12-18T09:12:29;6.37;;;5.77;;
8488;SDS011;4281;45.772;12.852;2022-12-18T09:14:57;6.93;;;6.23;;
8488;SDS011;4281;45.772;12.852;2022-12-18T09:17:25;5.83;;;5.23;;
8488;SDS011;4281;45.772;12.852;2022-12-18T09:19:54;5.73;;;5.13;;
8488;SDS011;4281;45.772;12.852;2022-12-18T09:22:22;6.17;;;5.57;;
8488;SDS011;4281;45.772;12.852;2022-12-18T09:24:50;6.10;;;5.50;;
8488;SDS011;4281;45.772;12.852;2022-12-18T09:27:17;6.53;;;5.33;;
8488;SDS011;4281;45.772;12.852;2022-12-18T09:29:45;7.23;;;5.83;;
8488;SDS011;4281;45.772;12.852;2022-12-18T09:32:13;7.80;;;6.53;;
8488;SDS011;4281;45.772;12.852;2022-12-18T09:34:47;6.73;;;5.87;;
8488;SDS011;4281;45.772;12.852;2022-12-18T09:37:16;6.93;;;6.17;;
8488;SDS011;4281;45.772;12.852;2022-12-18T09:39:44;6.80;;;6.10;;
8488;SDS011;4281;45.772;12.852;2022-12-18T09:42:14;7.37;;;5.80;;
8488;SDS011;4281;45.772;12.852;2022-12-18T09:44:48;6.87;;;6.17;;
8488;SDS011;4281;45.772;12.852;2022-12-18T09:47:18;6.33;;;5.50;;
8488;SDS011;4281;45.772;12.852;2022-12-18T09:49:48;7.07;;;5.30;;
8488;SDS011;4281;45.772;12.852;2022-12-18T09:52:19;6.33;;;5.70;;
8488;SDS011;4281;45.772;12.852;2022-12-18T09:54:52;6.73;;;5.53;;
8488;SDS011;4281;45.772;12.852;2022-12-18T09:57:21;7.00;;;6.00;;
8488;SDS011;4281;45.772;12.852;2022-12-18T09:59:51;5.83;;;5.23;;
8488;SDS011;4281;45.772;12.852;2022-12-18T10:02:23;6.50;;;5.80;;
8488;SDS011;4281;45.772;12.852;2022-12-18T10:04:59;6.10;;;5.37;;
8488;SDS011;4281;45.772;12.852;2022-12-18T10:07:35;6.90;;;5.40;;
8488;SDS011;4281;45.772;12.852;2022-12-18T10:10:14;6.97;;;6.27;;
8488;SDS011;4281;45.772;12.852;2022-12-18T10:12:48;7.40;;;6.70;;
8488;SDS011;4281;45.772;12.852;2022-12-18T10:15:27;7.80;;;7.00;;
8488;SDS011;4281;45.772;12.852;2022-12-18T10:18:00;7.30;;;6.60;;
8488;SDS011;4281;45.772;12.852;2022-12-18T10:20:32;6.80;;;6.10;;
8488;SDS011;4281;45.772;12.852;2022-12-18T10:23:08;6.87;;;6.07;;
8488;SDS011;4281;45.772;12.852;2022-12-18T10:25:43;6.80;;;6.10;;
8488;SDS011;4281;45.772;12.852;2022-12-18T10:28:18;7.03;;;6.33;;
8488;SDS011;4281;45.772;12.852;2022-12-18T10:30:46;6.03;;;5.40;;
8488;SDS011;4281;45.772;12.852;2022-12-18T10:33:15;6.30;;;5.57;;
8488;SDS011;4281;45.772;12.852;2022-12-18T10:35:44;6.17;;;5.53;;
8488;SDS011;4281;45.772;12.852;2022-12-18T10:38:26;6.97;;;6.27;;
8488;SDS011;4281;45.772;12.852;2022-12-18T10:40:56;6.83;;;5.90;;
8488;SDS011;4281;45.772;12.852;2022-12-18T10:43:26;6.43;;;5.50;;
8488;SDS011;4281;45.772;12.852;2022-12-18T10:45:59;6.40;;;5.70;;
8488;SDS011;4281;45.772;12.852;2022-12-18T10:48:33;6.30;;;5.50;;
8488;SDS011;4281;45.772;12.852;2022-12-18T10:51:04;6.27;;;5.67;;
8488;SDS011;4281;45.772;12.852;2022-12-18T10:53:39;6.33;;;5.57;;
8488;SDS011;4281;45.772;12.852;2022-12-18T10:56:07;7.20;;;6.17;;
8488;SDS011;4281;45.772;12.852;2022-12-18T10:58:36;6.63;;;5.73;;
8488;SDS011;4281;45.772;12.852;2022-12-18T11:01:08;7.03;;;6.33;;
8488;SDS011;4281;45.772;12.852;2022-12-18T11:03:38;6.77;;;6.07;;
8488;SDS011;4281;45.772;12.852;2022-12-18T11:06:08;7.30;;;6.50;;
8488;SDS011;4281;45.772;12.852;2022-12-18T11:08:38;6.83;;;6.13;;
8488;SDS011;4281;45.772;12.852;2022-12-18T11:11:09;6.63;;;5.93;;
8488;SDS011;4281;45.772;12.852;2022-12-18T11:13:47;6.37;;;5.73;;
8488;SDS011;4281;45.772;12.852;2022-12-18T11:16:19;6.97;;;6.10;;
8488;SDS011;4281;45.772;12.852;2022-12-18T11:18:47;7.47;;;6.37;;
8488;SDS011;4281;45.772;12.852;2022-12-18T11:21:15;7.23;;;6.23;;
8488;SDS011;4281;45.772;12.852;2022-12-18T11:23:46;6.70;;;5.70;;
8488;SDS011;4281;45.772;12.852;2022-12-18T11:26:15;6.93;;;5.90;;
8488;SDS011;4281;45.772;12.852;2022-12-18T11:28:43;7.17;;;6.10;;
8488;SDS011;4281;45.772;12.852;2022-12-18T11:31:22;5.93;;;5.30;;
8488;SDS011;4281;45.772;12.852;2022-12-18T11:33:53;7.90;;;7.10;;
8488;SDS011;4281;45.772;12.852;2022-12-18T11:36:44;7.67;;;6.70;;
8488;SDS011;4281;45.772;12.852;2022-12-18T11:39:17;7.90;;;6.93;;
8488;SDS011;4281;45.772;12.852;2022-12-18T11:41:49;6.13;;;5.43;;
8488;SDS011;4281;45.772;12.852;2022-12-18T11:44:41;7.07;;;6.13;;
8488;SDS011;4281;45.772;12.852;2022-12-18T11:47:13;7.67;;;6.07;;
8488;SDS011;4281;45.772;12.852;2022-12-18T11:49:47;6.87;;;6.17;;
8488;SDS011;4281;45.772;12.852;2022-12-18T11:52:18;6.83;;;5.83;;
8488;SDS011;4281;45.772;12.852;2022-12-18T11:54:48;6.27;;;5.67;;
8488;SDS011;4281;45.772;12.852;2022-12-18T11:57:22;6.90;;;6.20;;
8488;SDS011;4281;45.772;12.852;2022-12-18T12:00:01;6.73;;;6.03;;
8488;SDS011;4281;45.772;12.852;2022-12-18T12:02:36;7.10;;;6.40;;
8488;SDS011;4281;45.772;12.852;2022-12-18T12:05:17;6.47;;;5.77;;
8488;SDS011;4281;45.772;12.852;2022-12-18T12:07:52;6.87;;;6.17;;
8488;SDS011;4281;45.772;12.852;2022-12-18T12:10:27;6.80;;;6.10;;
8488;SDS011;4281;45.772;12.852;2022-12-18T12:13:06;7.70;;;6.70;;
8488;SDS011;4281;45.772;12.852;2022-12-18T12:15:42;6.77;;;5.87;;
8488;SDS011;4281;45.772;12.852;2022-12-18T12:18:16;7.20;;;6.50;;
8488;SDS011;4281;45.772;12.852;2022-12-18T12:20:50;6.53;;;5.93;;
8488;SDS011;4281;45.772;12.852;2022-12-18T12:23:23;7.10;;;6.40;;
8488;SDS011;4281;45.772;12.852;2022-12-18T12:25:59;7.20;;;6.50;;
8488;SDS011;4281;45.772;12.852;2022-12-18T12:28:37;6.60;;;5.90;;
8488;SDS011;4281;45.772;12.852;2022-12-18T12:31:18;6.17;;;5.57;;
8488;SDS011;4281;45.772;12.852;2022-12-18T12:33:52;6.00;;;5.27;;
8488;SDS011;4281;45.772;12.852;2022-12-18T12:36:29;6.97;;;6.10;;
8488;SDS011;4281;45.772;12.852;2022-12-18T12:39:07;6.93;;;6.23;;
8488;SDS011;4281;45.772;12.852;2022-12-18T12:41:38;7.50;;;6.70;;
8488;SDS011;4281;45.772;12.852;2022-12-18T12:44:25;6.90;;;6.20;;
8488;SDS011;4281;45.772;12.852;2022-12-18T12:46:56;7.53;;;6.70;;
8488;SDS011;4281;45.772;12.852;2022-12-18T12:49:29;7.10;;;6.40;;
8488;SDS011;4281;45.772;12.852;2022-12-18T12:52:06;6.93;;;6.23;;
8488;SDS011;4281;45.772;12.852;2022-12-18T12:54:38;7.07;;;6.33;;
8488;SDS011;4281;45.772;12.852;2022-12-18T12:57:08;7.00;;;6.30;;
8488;SDS011;4281;45.772;12.852;2022-12-18T12:59:41;6.97;;;6.27;;
8488;SDS011;4281;45.772;12.852;2022-12-18T13:04:51;7.53;;;6.37;;
8488;SDS011;4281;45.772;12.852;2022-12-18T13:07:24;7.63;;;6.77;;
8488;SDS011;4281;45.772;12.852;2022-12-18T13:10:12;6.73;;;6.03;;
8488;SDS011;4281;45.772;12.852;2022-12-18T13:12:57;7.43;;;6.60;;
8488;SDS011;4281;45.772;12.852;2022-12-18T13:15:29;8.33;;;7.17;;
8488;SDS011;4281;45.772;12.852;2022-12-18T13:18:04;6.57;;;5.90;;
8488;SDS011;4281;45.772;12.852;2022-12-18T13:20:37;7.50;;;6.67;;
8488;SDS011;4281;45.772;12.852;2022-12-18T13:25:58;6.77;;;6.07;;
8488;SDS011;4281;45.772;12.852;2022-12-18T13:34:33;6.73;;;6.13;;
8488;SDS011;4281;45.772;12.852;2022-12-18T13:43:22;7.27;;;6.57;;
8488;SDS011;4281;45.772;12.852;2022-12-18T13:46:00;6.53;;;5.83;;
8488;SDS011;4281;45.772;12.852;2022-12-18T13:48:31;6.93;;;6.23;;
8488;SDS011;4281;45.772;12.852;2022-12-18T13:51:00;6.33;;;5.67;;
8488;SDS011;4281;45.772;12.852;2022-12-18T13:53:30;6.13;;;5.53;;
8488;SDS011;4281;45.772;12.852;2022-12-18T13:56:02;6.20;;;5.60;;
8488;SDS011;4281;45.772;12.852;2022-12-18T13:58:30;6.77;;;6.07;;
8488;SDS011;4281;45.772;12.852;2022-12-18T14:01:00;7.10;;;6.23;;
8488;SDS011;4281;45.772;12.852;2022-12-18T14:03:31;6.03;;;5.10;;
8488;SDS011;4281;45.772;12.852;2022-12-18T14:06:00;6.83;;;6.00;;
8488;SDS011;4281;45.772;12.852;2022-12-18T14:08:36;5.73;;;5.23;;
8488;SDS011;4281;45.772;12.852;2022-12-18T14:11:07;6.63;;;5.90;;
8488;SDS011;4281;45.772;12.852;2022-12-18T14:13:37;6.43;;;5.80;;
8488;SDS011;4281;45.772;12.852;2022-12-18T14:16:12;5.73;;;5.13;;
8488;SDS011;4281;45.772;12.852;2022-12-18T14:18:43;5.57;;;5.03;;
8488;SDS011;4281;45.772;12.852;2022-12-18T14:21:23;5.80;;;5.23;;
8488;SDS011;4281;45.772;12.852;2022-12-18T14:24:02;5.93;;;5.33;;
8488;SDS011;4281;45.772;12.852;2022-12-18T14:26:32;6.77;;;6.13;;
8488;SDS011;4281;45.772;12.852;2022-12-18T14:29:00;6.77;;;5.50;;
8488;SDS011;4281;45.772;12.852;2022-12-18T14:31:31;6.07;;;5.30;;
8488;SDS011;4281;45.772;12.852;2022-12-18T14:33:59;9.23;;;6.03;;
8488;SDS011;4281;45.772;12.852;2022-12-18T14:36:27;6.50;;;5.67;;
8488;SDS011;4281;45.772;12.852;2022-12-18T14:38:56;6.23;;;5.63;;
8488;SDS011;4281;45.772;12.852;2022-12-18T14:41:25;6.20;;;5.53;;
8488;SDS011;4281;45.772;12.852;2022-12-18T14:43:54;6.93;;;6.07;;
8488;SDS011;4281;45.772;12.852;2022-12-18T14:46:26;6.20;;;5.50;;
8488;SDS011;4281;45.772;12.852;2022-12-18T14:48:57;6.90;;;6.00;;
8488;SDS011;4281;45.772;12.852;2022-12-18T14:51:25;6.17;;;5.43;;
8488;SDS011;4281;45.772;12.852;2022-12-18T14:53:53;7.47;;;6.30;;
8488;SDS011;4281;45.772;12.852;2022-12-18T14:56:23;7.00;;;6.30;;
8488;SDS011;4281;45.772;12.852;2022-12-18T14:58:53;6.33;;;5.60;;
8488;SDS011;4281;45.772;12.852;2022-12-18T15:01:22;7.60;;;6.87;;
8488;SDS011;4281;45.772;12.852;2022-12-18T15:03:53;8.77;;;7.87;;
8488;SDS011;4281;45.772;12.852;2022-12-18T15:06:27;8.73;;;7.63;;
8488;SDS011;4281;45.772;12.852;2022-12-18T15:08:57;7.83;;;7.03;;
8488;SDS011;4281;45.772;12.852;2022-12-18T15:11:33;7.67;;;6.83;;
8488;SDS011;4281;45.772;12.852;2022-12-18T15:14:21;7.10;;;6.40;;
8488;SDS011;4281;45.772;12.852;2022-12-18T15:17:01;7.90;;;6.70;;
8488;SDS011;4281;45.772;12.852;2022-12-18T15:19:33;8.00;;;6.70;;
8488;SDS011;4281;45.772;12.852;2022-12-18T15:22:04;7.33;;;6.50;;
8488;SDS011;4281;45.772;12.852;2022-12-18T15:24:44;7.67;;;6.40;;
8488;SDS011;4281;45.772;12.852;2022-12-18T15:27:20;8.70;;;7.00;;
8488;SDS011;4281;45.772;12.852;2022-12-18T15:32:47;8.57;;;6.83;;
8488;SDS011;4281;45.772;12.852;2022-12-18T15:35:16;7.73;;;6.93;;
8488;SDS011;4281;45.772;12.852;2022-12-18T15:37:47;8.00;;;6.60;;
8488;SDS011;4281;45.772;12.852;2022-12-18T15:40:15;7.77;;;6.83;;
8488;SDS011;4281;45.772;12.852;2022-12-18T15:42:45;8.23;;;7.37;;
8488;SDS011;4281;45.772;12.852;2022-12-18T15:45:30;8.10;;;7.17;;
8488;SDS011;4281;45.772;12.852;2022-12-18T15:47:58;8.20;;;7.40;;